Time;durP1;ratioP1;P1;durP2;ratioP2;P2;SDS_P1;SDS_P2;PMS_P1;PMS_P2;Temp;Humidity;BMP_temperature;BMP_pressure;BME280_temperature;BME280_humidity;BME280_pressure;Samples;Min_cycle;Max_cycle;Signal;HPM_P1;HPM_P2
2022/06/21 00:04:40;;;;;;;3.60;2.90;;;;;;;13.63;75.04;98076.77;434355;1267;96911;-43
2022/06/21 00:14:44;;;;;;;5.50;3.20;;;;;;;13.61;75.11;98075.44;433666;1267;96183;-44
2022/06/21 00:24:47;;;;;;;4.00;3.20;;;;;;;13.58;75.20;98081.91;433851;1267;108906;-41
2022/06/21 00:34:51;;;;;;;3.40;2.90;;;;;;;13.53;75.28;98083.66;434105;1267;96167;-44
2022/06/21 00:45:03;;;;;;;5.70;3.70;;;;;;;13.40;75.12;98083.34;434278;1267;108975;-41
2022/06/21 00:55:15;;;;;;;5.30;4.40;;;;;;;13.16;74.96;98081.07;434315;1267;109610;-40
2022/06/21 01:05:19;;;;;;;3.60;3.30;;;;;;;12.88;74.88;98073.81;434343;1268;95462;-42
2022/06/21 01:15:24;;;;;;;5.10;4.00;;;;;;;12.71;74.96;98072.43;434278;1267;108962;-42
2022/06/21 01:25:33;;;;;;;4.10;3.30;;;;;;;12.63;75.08;98076.42;434144;1267;96159;-42
2022/06/21 01:35:43;;;;;;;6.40;4.50;;;;;;;12.56;75.10;98084.55;434365;1267;110518;-41
2022/06/21 01:45:51;;;;;;;5.00;3.80;;;;;;;12.46;75.39;98074.19;433719;1267;108982;-40
2022/06/21 01:55:58;;;;;;;5.90;4.10;;;;;;;12.34;75.45;98067.76;433425;1267;572709;-40
2022/06/21 02:06:08;;;;;;;7.20;4.80;;;;;;;12.23;75.50;98067.50;433605;1267;107012;-43
2022/06/21 02:16:13;;;;;;;7.70;4.90;;;;;;;12.23;75.83;98065.54;434252;1267;96148;-41
2022/06/21 02:26:17;;;;;;;9.20;5.60;;;;;;;12.23;75.76;98064.27;434088;1267;109501;-41
2022/06/21 02:36:27;;;;;;;7.10;5.60;;;;;;;12.27;76.15;98060.48;434230;1267;96579;-41
2022/06/21 02:46:36;;;;;;;4.70;4.20;;;;;;;12.96;76.33;98060.84;434152;1267;95342;-41
2022/06/21 02:56:42;;;;;;;5.30;4.40;;;;;;;12.99;75.16;98068.76;434151;1267;109792;-40
2022/06/21 03:06:46;;;;;;;4.60;3.50;;;;;;;12.79;74.92;98071.70;434037;1267;108736;-40
2022/06/21 03:16:51;;;;;;;7.60;4.60;;;;;;;13.32;74.78;98083.10;434299;1267;96149;-40
2022/06/21 03:26:56;;;;;;;6.50;5.20;;;;;;;14.91;73.76;98080.35;434304;1266;96054;-41
2022/06/21 03:37:00;;;;;;;5.40;4.90;;;;;;;15.76;72.61;98075.95;434038;1267;107708;-41
2022/06/21 03:47:08;;;;;;;6.80;5.10;;;;;;;17.13;71.04;98073.27;434042;1267;96126;-42
2022/06/21 03:57:11;;;;;;;6.80;4.30;;;;;;;18.52;69.15;98064.92;433765;1267;109803;-43
2022/06/21 04:07:17;;;;;;;4.60;4.20;;;;;;;18.76;67.76;98075.11;434191;1267;95529;-41
2022/06/21 04:17:20;;;;;;;8.70;4.50;;;;;;;18.12;66.84;98075.39;434301;1267;96133;-42
2022/06/21 04:27:30;;;;;;;5.80;4.50;;;;;;;19.33;65.92;98075.87;434179;1267;95367;-41
2022/06/21 04:37:40;;;;;;;7.10;3.70;;;;;;;20.30;63.96;98077.42;434152;1267;109017;-44
2022/06/21 04:47:48;;;;;;;6.90;4.30;;;;;;;20.58;62.05;98093.64;434195;1267;108787;-42
2022/06/21 04:57:52;;;;;;;6.70;3.30;;;;;;;20.25;59.78;98091.81;433976;1267;96127;-41
2022/06/21 05:08:02;;;;;;;6.10;3.80;;;;;;;19.65;59.39;98101.28;434137;1268;96911;-40
2022/06/21 05:18:05;;;;;;;5.90;3.70;;;;;;;17.81;59.74;98117.56;434128;1267;109532;-42
2022/06/21 05:28:11;;;;;;;5.90;4.50;;;;;;;15.94;61.13;98124.45;433778;1267;95664;-40
2022/06/21 05:38:15;;;;;;;5.60;4.90;;;;;;;15.20;62.54;98137.35;433734;1267;109840;-41
2022/06/21 05:48:21;;;;;;;5.10;3.30;;;;;;;14.44;63.53;98156.05;434234;1268;96617;-40
2022/06/21 05:58:30;;;;;;;6.60;3.60;;;;;;;15.31;64.49;98151.20;434140;1268;96164;-42
2022/06/21 06:08:33;;;;;;;;;;;;;;;16.11;63.31;98147.30;434266;1267;109728;-45
2022/06/21 06:18:36;;;;;;;2.90;2.50;;;;;;;15.05;62.93;98141.18;434195;1267;96191;-41
2022/06/21 06:28:41;;;;;;;5.00;2.60;;;;;;;15.14;63.91;98122.05;434174;1267;95697;-43
2022/06/21 06:38:45;;;;;;;2.80;2.00;;;;;;;17.11;63.42;98116.80;434287;1267;97925;-42
2022/06/21 06:48:49;;;;;;;3.20;1.90;;;;;;;16.74;61.45;98137.90;433813;1267;109344;-41
2022/06/21 07:09:01;;;;;;;2.80;2.20;;;;;;;15.41;62.19;98149.83;434126;1267;97928;-41
2022/06/21 07:19:05;;;;;;;2.60;1.80;;;;;;;15.11;62.15;98157.70;433795;1267;111039;-42
2022/06/21 07:29:12;;;;;;;4.40;2.10;;;;;;;15.10;62.72;98157.05;434289;1267;96695;-41
2022/06/21 07:39:18;;;;;;;3.60;1.10;;;;;;;16.63;62.71;98148.52;434322;1266;97904;-40
2022/06/21 08:19:44;;;;;;;2.10;1.40;;;;;;;17.06;61.86;98165.47;434189;1267;110281;-44
2022/06/21 08:29:48;;;;;;;3.70;1.40;;;;;;;18.24;59.68;98158.48;434389;1267;97916;-41
2022/06/21 08:39:51;;;;;;;2.80;1.30;;;;;;;16.96;58.62;98167.35;434279;1267;111109;-41
2022/06/21 08:50:14;;;;;;;1.40;1.30;;;;;;;15.95;59.97;98176.47;434251;1267;98043;-41
2022/06/21 09:00:19;;;;;;;2.30;1.90;;;;;;;15.91;61.01;98174.45;434214;1267;96668;-41
2022/06/21 09:10:41;;;;;;;2.60;1.70;;;;;;;16.64;60.97;98176.80;434076;1268;110786;-43
2022/06/21 09:20:44;;;;;;;3.00;1.40;;;;;;;16.03;60.69;98172.30;434253;1268;108424;-41
2022/06/21 09:31:02;;;;;;;5.60;1.70;;;;;;;15.64;61.03;98168.60;434163;1268;97939;-41
2022/06/21 09:41:10;;;;;;;3.10;1.80;;;;;;;15.31;61.23;98166.16;434055;1268;108760;-41
2022/06/21 09:51:17;;;;;;;3.20;1.50;;;;;;;16.52;61.73;98159.73;434134;1268;108558;-43
2022/06/21 10:01:31;;;;;;;1.60;1.10;;;;;;;17.89;60.55;98161.46;434234;1268;96676;-40
2022/06/21 10:11:35;;;;;;;4.90;1.30;;;;;;;18.26;58.57;98171.02;434012;1268;110598;-45
2022/06/21 10:21:43;;;;;;;1.60;1.50;;;;;;;17.25;58.05;98177.78;434271;1267;108924;-43
2022/06/21 10:31:50;;;;;;;2.10;1.40;;;;;;;16.51;58.88;98192.86;434265;1268;96666;-42
2022/06/21 10:52:36;;;;;;;5.90;1.80;;;;;;;16.12;58.50;98209.96;433986;1267;97099;-41
2022/06/21 11:03:14;;;;;;;6.70;1.90;;;;;;;16.00;59.14;98216.06;434157;1267;110427;-43
2022/06/21 11:13:18;;;;;;;;;;;;;;;16.66;59.24;98210.21;434046;1268;108907;-43
2022/06/21 11:23:22;;;;;;;3.90;2.00;;;;;;;17.00;58.63;98215.42;433878;1267;96729;-41
2022/06/21 11:33:27;;;;;;;3.40;1.90;;;;;;;17.69;58.34;98218.80;434180;1267;111154;-41
2022/06/21 11:43:35;;;;;;;2.30;1.10;;;;;;;18.07;56.14;98222.88;434075;1268;97921;-41
2022/06/21 11:53:43;;;;;;;;;;;;;;;17.75;55.59;98221.52;434255;1268;97926;-42
2022/06/21 12:03:56;;;;;;;2.00;1.20;;;;;;;18.16;56.00;98212.80;434078;1267;111078;-41
2022/06/21 12:14:04;;;;;;;2.30;1.30;;;;;;;18.85;54.83;98209.87;433710;1267;108645;-41
2022/06/21 12:24:14;;;;;;;6.30;1.50;;;;;;;19.03;54.17;98207.85;434217;1268;98437;-40
2022/06/21 12:34:21;;;;;;;4.60;1.30;;;;;;;19.09;53.90;98207.64;434174;1267;111139;-41
2022/06/21 12:44:27;;;;;;;3.80;1.40;;;;;;;19.61;52.70;98197.93;434361;1268;107811;-42
2022/06/21 12:54:42;;;;;;;2.40;1.10;;;;;;;19.58;51.22;98187.31;434141;1267;97890;-41
2022/06/21 13:04:53;;;;;;;1.60;1.10;;;;;;;19.44;51.39;98176.33;434173;1268;110048;-40
2022/06/21 13:15:31;;;;;;;4.20;0.60;;;;;;;19.67;50.14;98191.10;433811;1267;108104;-42
2022/06/21 13:25:44;;;;;;;2.20;0.80;;;;;;;19.12;50.05;98196.73;433994;1268;97916;-44
2022/06/21 13:35:49;;;;;;;0.70;0.50;;;;;;;18.89;50.43;98192.59;434263;1267;110991;-43
2022/06/21 13:45:54;;;;;;;1.00;0.70;;;;;;;19.22;50.97;98194.57;433731;1268;97910;-43
2022/06/21 13:56:03;;;;;;;3.40;0.60;;;;;;;19.44;49.79;98200.81;433109;1268;636438;-42
2022/06/21 14:06:08;;;;;;;1.60;0.60;;;;;;;19.13;50.06;98204.61;433918;1268;110785;-42
2022/06/21 14:16:20;;;;;;;2.10;0.80;;;;;;;19.27;50.15;98199.90;433734;1268;97726;-42
2022/06/21 14:36:35;;;;;;;4.50;1.20;;;;;;;19.19;49.50;98189.95;433710;1268;111139;-41
2022/06/21 14:46:41;;;;;;;3.00;0.90;;;;;;;19.15;50.35;98189.77;433834;1268;108687;-42
2022/06/21 14:56:49;;;;;;;3.00;0.70;;;;;;;19.37;50.03;98179.44;432871;1270;97933;-45
2022/06/21 15:07:24;;;;;;;1.60;0.70;;;;;;;19.11;50.26;98181.48;433760;1268;111116;-42
2022/06/21 15:17:31;;;;;;;4.20;0.80;;;;;;;18.91;50.36;98192.18;433234;1267;108728;-41
2022/06/21 15:27:41;;;;;;;3.20;1.00;;;;;;;18.72;50.77;98209.95;433732;1268;97921;-41
2022/06/21 15:37:52;;;;;;;2.70;1.20;;;;;;;19.04;51.21;98192.77;433441;1268;111151;-41
2022/06/21 15:58:29;;;;;;;1.10;1.00;;;;;;;18.83;51.58;98205.65;432702;1271;97929;-41
2022/06/21 16:08:35;;;;;;;1.90;1.30;;;;;;;18.77;52.03;98211.87;433727;1268;111168;-44
2022/06/21 16:18:42;;;;;;;4.20;1.60;;;;;;;18.84;52.65;98200.12;433529;1268;108852;-44
2022/06/21 16:38:52;;;;;;;3.40;2.20;;;;;;;18.28;53.67;98192.46;433568;1268;111172;-45
2022/06/21 16:49:04;;;;;;;5.70;2.20;;;;;;;18.01;54.24;98191.60;433718;1268;108762;-41
2022/06/21 16:59:13;;;;;;;3.40;1.90;;;;;;;17.91;54.59;98197.58;433547;1267;96689;-42
2022/06/21 17:09:16;;;;;;;2.90;2.00;;;;;;;17.87;54.99;98200.73;433785;1268;110129;-41
2022/06/21 17:19:21;;;;;;;4.40;2.20;;;;;;;17.63;55.37;98199.83;433587;1268;97564;-43
2022/06/21 17:29:27;;;;;;;7.80;2.80;;;;;;;17.43;55.74;98195.08;433336;1268;97936;-43
2022/06/21 17:39:42;;;;;;;4.20;2.30;;;;;;;17.31;56.12;98187.67;433490;1268;111180;-41
2022/06/21 17:49:47;;;;;;;3.10;2.20;;;;;;;17.35;56.29;98189.92;433384;1268;108977;-44
2022/06/21 17:59:52;;;;;;;2.30;1.90;;;;;;;17.44;56.32;98189.71;433613;1268;97039;-40
2022/06/21 18:09:56;;;;;;;3.00;2.00;;;;;;;17.41;56.72;98191.83;432874;1269;96934;-42
2022/06/21 18:20:08;;;;;;;5.40;3.30;;;;;;;17.19;56.88;98184.33;432846;1270;108863;-43
2022/06/21 18:30:12;;;;;;;9.30;3.80;;;;;;;16.92;57.14;98178.13;433527;1268;98585;-42
2022/06/21 18:40:17;;;;;;;8.60;3.20;;;;;;;16.68;57.55;98187.19;433506;1268;107853;-45
2022/06/21 18:50:27;;;;;;;3.40;2.60;;;;;;;16.44;57.89;98193.55;433681;1268;97838;-45
2022/06/21 19:00:44;;;;;;;9.30;3.40;;;;;;;16.06;58.50;98197.95;433490;1268;111071;-43
2022/06/21 19:10:55;;;;;;;9.40;4.20;;;;;;;15.69;59.36;98204.73;433428;1268;109380;-42
2022/06/21 19:21:02;;;;;;;6.60;6.00;;;;;;;15.42;59.79;98207.52;433597;1268;97941;-43
2022/06/21 19:41:32;;;;;;;22.70;9.10;;;;;;;15.09;60.74;98215.05;433586;1268;109586;-42
2022/06/21 19:51:54;;;;;;;18.30;5.80;;;;;;;15.01;61.06;98217.57;433613;1268;97622;-42
2022/06/21 20:02:09;;;;;;;12.90;5.70;;;;;;;14.96;61.61;98218.80;433095;1270;108903;-42
2022/06/21 20:12:14;;;;;;;10.40;5.90;;;;;;;14.83;61.86;98220.49;433627;1267;97890;-43
2022/06/21 20:22:27;;;;;;;13.30;5.30;;;;;;;14.59;62.13;98231.89;433133;1269;110971;-43
2022/06/21 20:32:37;;;;;;;12.30;5.60;;;;;;;14.44;62.41;98241.16;433296;1267;107695;-41
2022/06/21 20:53:31;;;;;;;9.90;5.20;;;;;;;14.22;63.12;98247.86;433654;1268;109674;-43
2022/06/21 21:03:38;;;;;;;8.10;4.30;;;;;;;14.16;63.60;98254.89;433453;1268;97916;-41
2022/06/21 21:13:48;;;;;;;5.60;4.10;;;;;;;13.98;63.70;98259.27;433781;1268;111358;-41
2022/06/21 21:23:54;;;;;;;8.20;3.30;;;;;;;13.78;63.94;98264.72;433365;1269;108660;-41
2022/06/21 21:33:59;;;;;;;4.40;2.60;;;;;;;13.78;64.13;98266.58;433399;1269;97640;-41
2022/06/21 21:44:04;;;;;;;6.80;3.70;;;;;;;13.83;64.36;98273.24;433573;1267;107817;-42
2022/06/21 21:54:10;;;;;;;3.90;3.00;;;;;;;13.84;64.57;98275.27;433665;1267;98019;-41
2022/06/21 22:14:19;;;;;;;5.00;3.00;;;;;;;13.66;64.70;98264.76;433512;1266;107780;-43
2022/06/21 22:24:24;;;;;;;3.80;3.20;;;;;;;13.58;64.96;98253.95;433160;1270;97913;-43
2022/06/21 22:34:31;;;;;;;7.50;3.60;;;;;;;13.46;64.95;98256.52;433604;1268;111110;-41
2022/06/21 22:44:35;;;;;;;8.50;3.60;;;;;;;13.29;65.28;98269.34;433756;1268;107816;-41
2022/06/21 22:54:48;;;;;;;6.20;3.60;;;;;;;13.19;65.55;98271.52;433677;1268;98407;-40
2022/06/21 23:04:56;;;;;;;4.30;3.30;;;;;;;13.16;65.84;98270.06;433447;1268;111040;-41
2022/06/21 23:15:00;;;;;;;4.90;3.30;;;;;;;13.10;65.93;98276.96;433614;1268;108200;-43
2022/06/21 23:25:08;;;;;;;5.90;3.60;;;;;;;12.97;66.04;98274.64;433630;1268;97929;-42
2022/06/21 23:35:13;;;;;;;9.20;3.60;;;;;;;12.66;66.54;98273.89;433447;1268;109784;-42
2022/06/21 23:45:20;;;;;;;8.40;4.20;;;;;;;12.43;66.92;98257.91;433688;1267;97942;-41
2022/06/21 23:55:26;;;;;;;9.30;4.40;;;;;;;12.15;67.19;98243.01;433268;1269;111153;-42
